Time;durP1;ratioP1;P1;durP2;ratioP2;P2;SDS_P1;SDS_P2;PMS_P1;PMS_P2;Temp;Humidity;BMP_temperature;BMP_pressure;BME280_temperature;BME280_humidity;BME280_pressure;Samples;Min_cycle;Max_cycle;Signal;HPM_P1;HPM_P2
2024/03/29 00:01:15;;;;;;;;;2.00;2.00;;;;;;;;5080255;28;45361;-87
2024/03/29 00:03:40;;;;;;;;;2.67;1.00;;;;;;;;5081245;28;45243;-86
2024/03/29 00:06:05;;;;;;;;;1.00;1.00;;;;;;;;5079326;28;46219;-88
2024/03/29 00:08:33;;;;;;;;;0.33;0.33;;;;;;;;5080459;28;46231;-86
2024/03/29 00:10:58;;;;;;;;;1.00;1.00;;;;;;;;5080929;28;45262;-87
2024/03/29 00:13:23;;;;;;;;;2.67;2.00;;;;;;;;5079476;28;45240;-86
2024/03/29 00:15:48;;;;;;;;;0.33;0.33;;;;;;;;5079130;28;45808;-88
2024/03/29 00:18:14;;;;;;;;;1.67;1.67;;;;;;;;5080435;28;46281;-87
2024/03/29 00:20:39;;;;;;;;;1.00;1.00;;;;;;;;5080514;28;45228;-89
2024/03/29 00:23:04;;;;;;;;;3.33;2.00;;;;;;;;5083238;28;45138;-90
2024/03/29 00:25:29;;;;;;;;;2.00;1.00;;;;;;;;5080515;28;45336;-88
2024/03/29 00:27:55;;;;;;;;;1.33;1.33;;;;;;;;5081062;28;45444;-88
2024/03/29 00:30:20;;;;;;;;;2.00;1.00;;;;;;;;5079956;28;45165;-87
2024/03/29 00:32:45;;;;;;;;;3.00;3.00;;;;;;;;5080036;28;45448;-85
2024/03/29 00:35:10;;;;;;;;;1.67;1.67;;;;;;;;5079580;28;45423;-84
2024/03/29 00:37:35;;;;;;;;;1.67;1.67;;;;;;;;5078428;28;47124;-87
2024/03/29 00:40:01;;;;;;;;;1.00;1.00;;;;;;;;5079842;28;45306;-86
2024/03/29 00:42:26;;;;;;;;;2.00;2.00;;;;;;;;5079820;28;45333;-84
2024/03/29 00:44:51;;;;;;;;;1.00;1.00;;;;;;;;5079524;28;45316;-85
2024/03/29 00:47:16;;;;;;;;;1.00;1.00;;;;;;;;5077873;28;48322;-84
2024/03/29 00:49:41;;;;;;;;;4.00;3.00;;;;;;;;5079424;28;45302;-84
2024/03/29 00:52:07;;;;;;;;;1.00;1.00;;;;;;;;5079444;28;45301;-83
2024/03/29 00:54:32;;;;;;;;;1.00;1.00;;;;;;;;5079556;28;45353;-83
2024/03/29 00:56:57;;;;;;;;;6.00;4.67;;;;;;;;5083810;27;46158;-84
2024/03/29 00:59:22;;;;;;;;;1.00;1.00;;;;;;;;5099872;27;45293;-82
2024/03/29 01:01:48;;;;;;;;;1.67;1.67;;;;;;;;5099883;27;45304;-82
2024/03/29 01:04:13;;;;;;;;;1.00;1.00;;;;;;;;5098150;27;46169;-84
2024/03/29 01:06:38;;;;;;;;;1.00;1.00;;;;;;;;5098329;27;47313;-84
2024/03/29 01:09:04;;;;;;;;;2.00;1.67;;;;;;;;5101802;27;45335;-83
2024/03/29 01:11:30;;;;;;;;;1.67;1.67;;;;;;;;5103422;27;45330;-84
2024/03/29 01:13:55;;;;;;;;;1.00;1.00;;;;;;;;5097223;27;45357;-86
2024/03/29 01:16:20;;;;;;;;;1.00;1.00;;;;;;;;5081024;28;47042;-86
2024/03/29 01:18:46;;;;;;;;;2.00;1.00;;;;;;;;5082691;28;45395;-85
2024/03/29 01:21:12;;;;;;;;;0.00;0.00;;;;;;;;5083076;28;45188;-86
2024/03/29 01:23:37;;;;;;;;;0.00;0.00;;;;;;;;5082604;28;45453;-85
2024/03/29 01:26:02;;;;;;;;;1.00;1.00;;;;;;;;5080280;28;48058;-84
2024/03/29 01:28:29;;;;;;;;;4.00;2.00;;;;;;;;5081960;28;45457;-85
2024/03/29 01:30:54;;;;;;;;;1.00;1.00;;;;;;;;5082658;28;45248;-86
2024/03/29 01:33:20;;;;;;;;;1.00;1.00;;;;;;;;5082326;28;45535;-86
2024/03/29 01:35:45;;;;;;;;;1.00;0.33;;;;;;;;5082420;28;45226;-87
2024/03/29 01:38:10;;;;;;;;;3.00;3.00;;;;;;;;5080730;28;45515;-85
2024/03/29 01:41:13;;;;;;;;;1.00;1.00;;;;;;;;5081188;28;45279;-86
2024/03/29 01:43:38;;;;;;;;;2.33;1.67;;;;;;;;5081144;28;46380;-86
2024/03/29 01:46:06;;;;;;;;;1.00;1.00;;;;;;;;5080550;28;47246;-85
2024/03/29 01:48:31;;;;;;;;;4.00;2.00;;;;;;;;5082905;28;45265;-86
2024/03/29 01:50:57;;;;;;;;;2.33;2.33;;;;;;;;5082461;28;45301;-86
2024/03/29 01:53:24;;;;;;;;;3.00;2.00;;;;;;;;5082219;28;45527;-86
2024/03/29 01:55:49;;;;;;;;;2.00;1.00;;;;;;;;5081066;28;47119;-87
2024/03/29 01:58:15;;;;;;;;;2.33;2.00;;;;;;;;5082015;28;45202;-85
2024/03/29 02:00:54;;;;;;;;;1.00;1.00;;;;;;;;5083311;28;45455;-86
2024/03/29 02:03:19;;;;;;;;;1.67;1.67;;;;;;;;5082580;28;45215;-86
2024/03/29 02:05:45;;;;;;;;;2.00;2.00;;;;;;;;5081094;28;47974;-86
2024/03/29 02:08:10;;;;;;;;;1.67;1.00;;;;;;;;5082591;28;45266;-88
2024/03/29 02:10:36;;;;;;;;;1.33;1.33;;;;;;;;5087591;28;45221;-87
2024/03/29 02:13:01;;;;;;;;;1.67;1.67;;;;;;;;5083845;28;45362;-89
2024/03/29 02:15:32;;;;;;;;;1.00;1.00;;;;;;;;5088536;28;46082;-86
2024/03/29 02:17:58;;;;;;;;;1.00;0.67;;;;;;;;5085824;28;45257;-86
2024/03/29 02:20:23;;;;;;;;;1.00;1.00;;;;;;;;5080975;28;45260;-88
2024/03/29 02:22:54;;;;;;;;;2.67;2.00;;;;;;;;5090699;28;45190;-87
2024/03/29 02:25:19;;;;;;;;;1.00;1.00;;;;;;;;5087106;28;45961;-88
2024/03/29 02:27:45;;;;;;;;;0.33;0.33;;;;;;;;5087004;28;45255;-87
2024/03/29 02:30:14;;;;;;;;;1.00;1.00;;;;;;;;5083394;28;45324;-88
2024/03/29 02:32:39;;;;;;;;;1.33;1.33;;;;;;;;5082420;28;46236;-88
2024/03/29 02:35:04;;;;;;;;;1.00;1.00;;;;;;;;5087926;28;45332;-88
2024/03/29 02:37:29;;;;;;;;;0.00;0.00;;;;;;;;5087486;28;45140;-88
2024/03/29 02:39:55;;;;;;;;;1.00;1.00;;;;;;;;5086567;28;45235;-88
2024/03/29 02:42:20;;;;;;;;;0.00;0.00;;;;;;;;5082686;28;46398;-88
2024/03/29 02:44:46;;;;;;;;;0.00;0.00;;;;;;;;5084669;28;45303;-88
2024/03/29 02:47:11;;;;;;;;;0.00;0.00;;;;;;;;5083738;28;45438;-88
2024/03/29 02:49:36;;;;;;;;;0.00;0.00;;;;;;;;5082070;28;45539;-88
2024/03/29 02:52:01;;;;;;;;;0.00;0.00;;;;;;;;5091979;27;45082;-86
2024/03/29 02:54:26;;;;;;;;;0.00;0.00;;;;;;;;5085892;28;46201;-88
2024/03/29 02:56:52;;;;;;;;;0.00;0.00;;;;;;;;5083594;27;45480;-87
2024/03/29 02:59:17;;;;;;;;;1.67;1.00;;;;;;;;5084892;28;45534;-88
2024/03/29 03:01:42;;;;;;;;;0.00;0.00;;;;;;;;5084859;28;45322;-88
2024/03/29 03:04:07;;;;;;;;;0.00;0.00;;;;;;;;5086694;28;45404;-88
2024/03/29 03:06:32;;;;;;;;;1.00;1.00;;;;;;;;5085085;28;45236;-87
2024/03/29 03:11:42;;;;;;;;;0.00;0.00;;;;;;;;5068364;28;45272;-85
2024/03/29 03:14:07;;;;;;;;;0.00;0.00;;;;;;;;5063567;28;48264;-87
2024/03/29 03:16:32;;;;;;;;;0.00;0.00;;;;;;;;5067206;28;45302;-87
2024/03/29 03:18:57;;;;;;;;;1.33;0.00;;;;;;;;5063959;28;45608;-86
2024/03/29 03:21:22;;;;;;;;;0.00;0.00;;;;;;;;5063975;28;45215;-87
2024/03/29 03:23:47;;;;;;;;;0.00;0.00;;;;;;;;5069661;28;47204;-87
2024/03/29 03:26:13;;;;;;;;;1.00;1.00;;;;;;;;5063192;28;45494;-86
2024/03/29 03:28:38;;;;;;;;;0.00;0.00;;;;;;;;5068316;28;44700;-86
2024/03/29 03:31:03;;;;;;;;;1.00;1.00;;;;;;;;5064098;28;46102;-87
2024/03/29 03:33:28;;;;;;;;;0.00;0.00;;;;;;;;5066959;28;46137;-87
2024/03/29 03:35:53;;;;;;;;;0.00;0.00;;;;;;;;5062168;28;45382;-86
2024/03/29 03:38:19;;;;;;;;;1.00;0.00;;;;;;;;5063695;28;45373;-87
2024/03/29 03:40:44;;;;;;;;;0.00;0.00;;;;;;;;5064412;28;45264;-87
2024/03/29 03:43:09;;;;;;;;;0.00;0.00;;;;;;;;5065906;28;46232;-84
2024/03/29 03:45:39;;;;;;;;;0.00;0.00;;;;;;;;5061073;28;45279;-87
2024/03/29 03:48:04;;;;;;;;;0.67;0.67;;;;;;;;5066401;28;45276;-87
2024/03/29 03:50:30;;;;;;;;;3.00;1.00;;;;;;;;5063025;28;45422;-87
2024/03/29 03:52:55;;;;;;;;;0.00;0.00;;;;;;;;5060988;28;46238;-87
2024/03/29 03:55:20;;;;;;;;;0.00;0.00;;;;;;;;5061976;28;45411;-86
2024/03/29 03:57:45;;;;;;;;;0.00;0.00;;;;;;;;5063881;28;45253;-87
2024/03/29 04:00:11;;;;;;;;;0.00;0.00;;;;;;;;5060227;28;45638;-87
2024/03/29 04:02:37;;;;;;;;;0.00;0.00;;;;;;;;5061840;28;47143;-87
2024/03/29 04:05:02;;;;;;;;;0.00;0.00;;;;;;;;5065855;28;45216;-86
2024/03/29 04:07:27;;;;;;;;;0.00;0.00;;;;;;;;5062609;28;45278;-86
2024/03/29 04:09:53;;;;;;;;;0.00;0.00;;;;;;;;5065756;28;45247;-85
2024/03/29 04:12:18;;;;;;;;;1.00;1.00;;;;;;;;5061972;28;45408;-87
2024/03/29 04:14:43;;;;;;;;;0.00;0.00;;;;;;;;5058939;28;45350;-87
2024/03/29 04:17:08;;;;;;;;;1.00;0.00;;;;;;;;5060365;28;45293;-84
2024/03/29 04:19:33;;;;;;;;;0.00;0.00;;;;;;;;5060032;28;45489;-87
2024/03/29 04:21:59;;;;;;;;;0.67;0.67;;;;;;;;5058495;28;46964;-87
2024/03/29 04:24:24;;;;;;;;;0.00;0.00;;;;;;;;5060649;28;45362;-87
2024/03/29 04:26:49;;;;;;;;;0.00;0.00;;;;;;;;5060392;28;45467;-87
2024/03/29 04:29:15;;;;;;;;;0.00;0.00;;;;;;;;5059718;28;45288;-87
2024/03/29 04:31:40;;;;;;;;;0.00;0.00;;;;;;;;5064905;28;46048;-86
2024/03/29 04:34:05;;;;;;;;;0.00;0.00;;;;;;;;5061014;28;45348;-88
2024/03/29 04:36:31;;;;;;;;;0.00;0.00;;;;;;;;5063633;28;45295;-84
2024/03/29 04:38:56;;;;;;;;;1.00;1.00;;;;;;;;5061506;28;46140;-86
2024/03/29 04:41:21;;;;;;;;;0.00;0.00;;;;;;;;5060064;28;45302;-85
2024/03/29 04:43:46;;;;;;;;;1.00;0.00;;;;;;;;5065533;28;45201;-86
2024/03/29 04:46:13;;;;;;;;;0.00;0.00;;;;;;;;5066245;28;45660;-84
2024/03/29 04:48:39;;;;;;;;;0.67;0.67;;;;;;;;5061723;28;47423;-84
2024/03/29 04:51:04;;;;;;;;;0.00;0.00;;;;;;;;5066455;28;45240;-83
2024/03/29 04:53:29;;;;;;;;;0.00;0.00;;;;;;;;5063280;28;45371;-85
2024/03/29 04:55:55;;;;;;;;;0.00;0.00;;;;;;;;5063195;28;45423;-85
2024/03/29 04:58:24;;;;;;;;;1.00;0.33;;;;;;;;5064627;28;45231;-85
2024/03/29 05:00:49;;;;;;;;;0.00;0.00;;;;;;;;5062986;28;45432;-87
2024/03/29 05:03:16;;;;;;;;;2.00;0.67;;;;;;;;5064919;28;45277;-86
2024/03/29 05:05:42;;;;;;;;;0.00;0.00;;;;;;;;5065015;28;45293;-84
2024/03/29 05:08:07;;;;;;;;;0.00;0.00;;;;;;;;5063320;28;47112;-85
2024/03/29 05:10:32;;;;;;;;;1.00;1.00;;;;;;;;5062656;28;47636;-84
2024/03/29 05:12:57;;;;;;;;;0.00;0.00;;;;;;;;5066379;28;45237;-85
2024/03/29 05:15:22;;;;;;;;;2.00;1.67;;;;;;;;5067280;28;45363;-85
2024/03/29 05:17:47;;;;;;;;;0.00;0.00;;;;;;;;5063385;28;45544;-86
2024/03/29 05:20:13;;;;;;;;;0.00;0.00;;;;;;;;5066295;28;45398;-86
2024/03/29 05:22:38;;;;;;;;;0.33;0.33;;;;;;;;5066614;28;45202;-85
2024/03/29 05:25:04;;;;;;;;;1.00;1.00;;;;;;;;5076725;28;45339;-85
2024/03/29 05:27:29;;;;;;;;;1.00;1.00;;;;;;;;5078612;28;45555;-86
2024/03/29 05:29:55;;;;;;;;;0.67;0.67;;;;;;;;5076897;27;45279;-87
2024/03/29 05:32:20;;;;;;;;;1.00;1.00;;;;;;;;5086595;28;45374;-86
2024/03/29 05:34:46;;;;;;;;;0.00;0.00;;;;;;;;5085996;28;45198;-86
2024/03/29 05:37:11;;;;;;;;;0.00;0.00;;;;;;;;5083527;28;45249;-85
2024/03/29 05:39:36;;;;;;;;;1.00;1.00;;;;;;;;5081526;28;47286;-87
2024/03/29 05:42:02;;;;;;;;;1.00;0.00;;;;;;;;5089048;28;45251;-85
2024/03/29 05:44:27;;;;;;;;;0.00;0.00;;;;;;;;5081732;28;45363;-86
2024/03/29 05:46:52;;;;;;;;;0.67;0.67;;;;;;;;5083915;28;45540;-87
2024/03/29 05:49:17;;;;;;;;;0.00;0.00;;;;;;;;5082752;28;46474;-86
2024/03/29 05:51:42;;;;;;;;;0.33;0.33;;;;;;;;5086219;28;45382;-86
2024/03/29 05:54:08;;;;;;;;;1.00;1.00;;;;;;;;5082708;28;46291;-87
2024/03/29 05:56:33;;;;;;;;;3.00;3.00;;;;;;;;5091448;27;45290;-86
2024/03/29 05:58:58;;;;;;;;;2.33;2.33;;;;;;;;5102461;27;48219;-86
2024/03/29 06:01:23;;;;;;;;;1.67;1.00;;;;;;;;5105387;27;45343;-87
2024/03/29 06:03:51;;;;;;;;;2.00;2.00;;;;;;;;5104217;27;45288;-86
2024/03/29 06:06:17;;;;;;;;;2.33;1.00;;;;;;;;5104007;27;47054;-87
2024/03/29 06:08:45;;;;;;;;;1.33;0.00;;;;;;;;5102607;27;45988;-87
2024/03/29 06:11:10;;;;;;;;;1.00;1.00;;;;;;;;5089450;27;45316;-86
2024/03/29 06:19:20;;;;;;;;;0.00;0.00;;;;;;;;5081292;28;45687;-86
2024/03/29 06:21:45;;;;;;;;;0.33;0.33;;;;;;;;5080935;28;45338;-79
2024/03/29 06:24:16;;;;;;;;;0.00;0.00;;;;;;;;5081797;28;45488;-82
2024/03/29 06:26:41;;;;;;;;;0.00;0.00;;;;;;;;5081634;28;45350;-83
2024/03/29 06:29:09;;;;;;;;;0.00;0.00;;;;;;;;5081573;28;45874;-82
2024/03/29 06:31:35;;;;;;;;;1.00;1.00;;;;;;;;5080017;28;46071;-83
2024/03/29 06:34:00;;;;;;;;;1.67;1.67;;;;;;;;5081325;28;45340;-85
2024/03/29 06:36:25;;;;;;;;;2.00;2.00;;;;;;;;5080214;28;46047;-84
2024/03/29 06:38:50;;;;;;;;;1.33;1.33;;;;;;;;5082324;28;45265;-85
2024/03/29 06:41:16;;;;;;;;;1.00;1.00;;;;;;;;5081582;28;45299;-84
2024/03/29 06:43:44;;;;;;;;;1.00;1.00;;;;;;;;5081689;28;45385;-85
2024/03/29 06:46:10;;;;;;;;;0.00;0.00;;;;;;;;5081290;28;45152;-87
2024/03/29 06:48:35;;;;;;;;;0.33;0.33;;;;;;;;5081343;28;45584;-87
2024/03/29 06:51:02;;;;;;;;;1.67;0.00;;;;;;;;5081617;28;45322;-84
2024/03/29 06:53:27;;;;;;;;;0.00;0.00;;;;;;;;5081454;28;45346;-85
2024/03/29 06:55:54;;;;;;;;;0.00;0.00;;;;;;;;5081197;28;45461;-84
2024/03/29 06:58:19;;;;;;;;;0.67;0.67;;;;;;;;5096076;27;47631;-84
2024/03/29 07:00:46;;;;;;;;;0.00;0.00;;;;;;;;5101476;27;45268;-82
2024/03/29 07:03:11;;;;;;;;;1.00;1.00;;;;;;;;5100002;27;45317;-82
2024/03/29 07:05:36;;;;;;;;;0.00;0.00;;;;;;;;5074716;28;45285;-82
2024/03/29 07:08:02;;;;;;;;;1.00;1.00;;;;;;;;5083837;28;46605;-82
2024/03/29 07:10:27;;;;;;;;;1.00;1.00;;;;;;;;5073042;28;45308;-81
2024/03/29 07:12:52;;;;;;;;;1.67;1.67;;;;;;;;5081034;28;45200;-81
2024/03/29 07:15:17;;;;;;;;;1.00;1.00;;;;;;;;5076683;28;45449;-81
2024/03/29 07:17:43;;;;;;;;;1.67;1.67;;;;;;;;5077063;28;46381;-81
2024/03/29 07:20:09;;;;;;;;;1.33;1.33;;;;;;;;5081107;28;45160;-80
2024/03/29 07:22:34;;;;;;;;;0.67;0.67;;;;;;;;5080181;28;45497;-80
2024/03/29 07:24:59;;;;;;;;;1.00;1.00;;;;;;;;5081050;28;45511;-82
2024/03/29 07:27:24;;;;;;;;;1.00;1.00;;;;;;;;5080944;28;46428;-81
2024/03/29 07:29:50;;;;;;;;;2.00;2.00;;;;;;;;5079424;28;45438;-81
2024/03/29 07:32:15;;;;;;;;;3.00;3.00;;;;;;;;5081246;28;45311;-81
2024/03/29 07:34:40;;;;;;;;;3.00;2.33;;;;;;;;5080813;28;45272;-80
2024/03/29 07:37:06;;;;;;;;;3.00;3.00;;;;;;;;5080464;28;45258;-80
2024/03/29 07:39:31;;;;;;;;;1.00;1.00;;;;;;;;5079366;28;45808;-79
2024/03/29 07:41:56;;;;;;;;;1.00;1.00;;;;;;;;5080931;28;45237;-79
2024/03/29 07:44:22;;;;;;;;;2.00;2.00;;;;;;;;5080735;28;45276;-83
2024/03/29 07:46:47;;;;;;;;;1.67;1.67;;;;;;;;5080173;28;45368;-82
2024/03/29 07:49:13;;;;;;;;;3.33;2.00;;;;;;;;5058913;28;45375;-82
2024/03/29 07:51:38;;;;;;;;;2.00;2.00;;;;;;;;5060305;28;45342;-82
2024/03/29 07:54:04;;;;;;;;;1.67;1.67;;;;;;;;5065236;28;47223;-82
2024/03/29 07:56:29;;;;;;;;;2.00;2.00;;;;;;;;5071159;27;46718;-82
2024/03/29 07:58:54;;;;;;;;;3.00;3.00;;;;;;;;5101473;27;45345;-82
2024/03/29 08:01:20;;;;;;;;;1.00;1.00;;;;;;;;5101267;27;45409;-83
2024/03/29 08:03:45;;;;;;;;;2.00;2.00;;;;;;;;5092581;27;46147;-80
2024/03/29 08:06:10;;;;;;;;;1.33;1.33;;;;;;;;5068126;28;45255;-88
2024/03/29 08:08:36;;;;;;;;;1.67;1.67;;;;;;;;5069186;28;45298;-83
2024/03/29 08:11:01;;;;;;;;;1.67;1.33;;;;;;;;5071543;28;45372;-82
2024/03/29 08:13:27;;;;;;;;;1.33;1.33;;;;;;;;5069225;28;47213;-82
2024/03/29 08:16:01;;;;;;;;;0.00;0.00;;;;;;;;5070623;28;45319;-82
2024/03/29 08:18:27;;;;;;;;;1.67;1.67;;;;;;;;5072127;28;45512;-84
2024/03/29 08:20:54;;;;;;;;;1.00;1.00;;;;;;;;5064252;28;45460;-82
2024/03/29 08:23:20;;;;;;;;;0.33;0.33;;;;;;;;5067528;28;45436;-83
2024/03/29 08:25:45;;;;;;;;;1.00;1.00;;;;;;;;5071202;28;46478;-84
2024/03/29 08:28:10;;;;;;;;;1.33;0.00;;;;;;;;5070452;28;45137;-82
2024/03/29 08:30:36;;;;;;;;;0.33;0.33;;;;;;;;5071599;28;45267;-85
2024/03/29 08:33:02;;;;;;;;;2.00;0.33;;;;;;;;5072457;28;45608;-81
2024/03/29 08:35:28;;;;;;;;;0.00;0.00;;;;;;;;5074039;28;45415;-83
2024/03/29 08:37:53;;;;;;;;;1.00;0.00;;;;;;;;5057266;28;45419;-81
2024/03/29 08:40:18;;;;;;;;;0.67;0.33;;;;;;;;5057869;28;45666;-82
2024/03/29 08:42:44;;;;;;;;;1.00;1.00;;;;;;;;5057993;28;45599;-83
2024/03/29 08:45:09;;;;;;;;;1.00;0.00;;;;;;;;5058585;28;47678;-81
2024/03/29 08:47:35;;;;;;;;;2.00;1.00;;;;;;;;5060713;28;45307;-82
2024/03/29 08:50:00;;;;;;;;;0.00;0.00;;;;;;;;5059848;28;45295;-82
2024/03/29 08:52:25;;;;;;;;;2.00;1.00;;;;;;;;5058194;28;46372;-81
2024/03/29 08:54:50;;;;;;;;;1.33;1.00;;;;;;;;5058333;28;48296;-82
2024/03/29 08:57:16;;;;;;;;;0.00;0.00;;;;;;;;5073038;27;45339;-80
2024/03/29 08:59:41;;;;;;;;;0.00;0.00;;;;;;;;5099838;27;45582;-81
2024/03/29 09:02:06;;;;;;;;;0.00;0.00;;;;;;;;5099240;27;47134;-80
2024/03/29 09:04:33;;;;;;;;;0.00;0.00;;;;;;;;5100585;27;45204;-82
2024/03/29 09:06:59;;;;;;;;;0.00;0.00;;;;;;;;5098850;27;45498;-82
2024/03/29 09:09:24;;;;;;;;;0.00;0.00;;;;;;;;5101535;27;45433;-81
2024/03/29 09:11:49;;;;;;;;;0.00;0.00;;;;;;;;5101320;27;45754;-82
2024/03/29 09:14:14;;;;;;;;;2.00;1.00;;;;;;;;5098736;27;47160;-82
2024/03/29 09:16:41;;;;;;;;;0.00;0.00;;;;;;;;5099536;27;45267;-82
2024/03/29 09:19:06;;;;;;;;;1.00;1.00;;;;;;;;5099880;27;45504;-84
2024/03/29 09:21:31;;;;;;;;;0.00;0.00;;;;;;;;5098333;27;46002;-81
2024/03/29 09:23:56;;;;;;;;;0.33;0.33;;;;;;;;5099651;27;46064;-81
2024/03/29 09:26:21;;;;;;;;;0.67;0.67;;;;;;;;5098184;27;45445;-85
2024/03/29 09:28:47;;;;;;;;;1.67;0.00;;;;;;;;5100061;27;45250;-82
2024/03/29 09:31:12;;;;;;;;;0.67;0.67;;;;;;;;5101840;27;45289;-83
2024/03/29 09:33:37;;;;;;;;;0.00;0.00;;;;;;;;5102867;27;46215;-84
2024/03/29 09:36:02;;;;;;;;;0.00;0.00;;;;;;;;5103233;27;45377;-81
2024/03/29 09:38:28;;;;;;;;;1.00;0.33;;;;;;;;5101843;27;45366;-83
2024/03/29 09:41:14;;;;;;;;;2.00;0.00;;;;;;;;5101981;27;46030;-82
2024/03/29 09:43:41;;;;;;;;;0.00;0.00;;;;;;;;5102395;27;46159;-82
2024/03/29 09:46:08;;;;;;;;;1.00;1.00;;;;;;;;5102602;27;45324;-82
2024/03/29 09:48:36;;;;;;;;;0.00;0.00;;;;;;;;5103206;27;45287;-82
2024/03/29 09:51:06;;;;;;;;;1.00;0.00;;;;;;;;5102602;27;45957;-81
2024/03/29 09:53:33;;;;;;;;;0.00;0.00;;;;;;;;5102239;27;45452;-80
2024/03/29 09:55:59;;;;;;;;;1.00;1.00;;;;;;;;5101595;27;45208;-82
2024/03/29 09:58:24;;;;;;;;;0.00;0.00;;;;;;;;5086372;27;45299;-81
2024/03/29 10:00:49;;;;;;;;;0.00;0.00;;;;;;;;5081735;28;45607;-82
2024/03/29 10:03:14;;;;;;;;;0.00;0.00;;;;;;;;5081880;28;45492;-81
2024/03/29 10:05:39;;;;;;;;;0.00;0.00;;;;;;;;5082583;28;45209;-81
2024/03/29 10:08:07;;;;;;;;;0.00;0.00;;;;;;;;5082176;28;45240;-83
2024/03/29 10:10:32;;;;;;;;;0.00;0.00;;;;;;;;5081876;28;45440;-82
2024/03/29 10:12:58;;;;;;;;;0.00;0.00;;;;;;;;5082185;28;46122;-82
2024/03/29 10:15:26;;;;;;;;;0.00;0.00;;;;;;;;5081608;28;45500;-81
2024/03/29 10:17:52;;;;;;;;;1.33;1.33;;;;;;;;5080263;28;45354;-83
2024/03/29 10:20:18;;;;;;;;;0.00;0.00;;;;;;;;5081720;28;45165;-82
2024/03/29 10:22:44;;;;;;;;;0.00;0.00;;;;;;;;5081847;28;45321;-82
2024/03/29 10:25:09;;;;;;;;;0.00;0.00;;;;;;;;5081923;28;45355;-83
2024/03/29 10:27:34;;;;;;;;;0.00;0.00;;;;;;;;5082138;28;45315;-81
2024/03/29 10:29:59;;;;;;;;;0.00;0.00;;;;;;;;5081599;28;45259;-83
2024/03/29 10:32:25;;;;;;;;;1.00;1.00;;;;;;;;5077226;28;46991;-82
2024/03/29 10:34:50;;;;;;;;;1.33;1.33;;;;;;;;5081394;28;45340;-81
2024/03/29 10:37:16;;;;;;;;;1.00;1.00;;;;;;;;5080314;28;45467;-84
2024/03/29 10:39:44;;;;;;;;;1.00;1.00;;;;;;;;5082104;28;45440;-83
2024/03/29 10:42:11;;;;;;;;;1.00;0.67;;;;;;;;5081803;28;45290;-81
2024/03/29 10:44:38;;;;;;;;;0.00;0.00;;;;;;;;5080657;28;45873;-83
2024/03/29 10:47:03;;;;;;;;;0.67;0.67;;;;;;;;5081495;28;45229;-81
2024/03/29 10:49:29;;;;;;;;;0.33;0.33;;;;;;;;5081385;28;45350;-83
2024/03/29 10:51:57;;;;;;;;;1.00;1.00;;;;;;;;5081333;28;45345;-82
2024/03/29 10:54:22;;;;;;;;;1.00;1.00;;;;;;;;5081586;28;45410;-83
2024/03/29 10:56:52;;;;;;;;;0.67;0.33;;;;;;;;5084953;27;45368;-84
2024/03/29 10:59:38;;;;;;;;;0.00;0.00;;;;;;;;5102262;27;45281;-85
2024/03/29 11:02:23;;;;;;;;;1.00;1.00;;;;;;;;5100510;27;47164;-84
2024/03/29 11:04:49;;;;;;;;;1.00;1.00;;;;;;;;5101710;27;45329;-83
2024/03/29 11:07:19;;;;;;;;;1.00;1.00;;;;;;;;5101611;27;45387;-82
2024/03/29 11:09:46;;;;;;;;;0.00;0.00;;;;;;;;5101638;27;45286;-84
2024/03/29 11:12:12;;;;;;;;;0.00;0.00;;;;;;;;5101919;27;45388;-82
2024/03/29 11:14:44;;;;;;;;;0.00;0.00;;;;;;;;5101779;27;45303;-85
2024/03/29 11:17:12;;;;;;;;;0.00;0.00;;;;;;;;5100174;27;45341;-81
2024/03/29 11:19:37;;;;;;;;;0.00;0.00;;;;;;;;5100441;27;47208;-84
2024/03/29 11:22:03;;;;;;;;;0.00;0.00;;;;;;;;5087672;27;45249;-82
2024/03/29 11:24:29;;;;;;;;;0.00;0.00;;;;;;;;5072973;28;46037;-84
2024/03/29 11:26:54;;;;;;;;;1.33;1.33;;;;;;;;5083185;28;45145;-84
2024/03/29 11:29:20;;;;;;;;;0.00;0.00;;;;;;;;5081222;28;45424;-85
2024/03/29 11:31:47;;;;;;;;;0.25;0.25;;;;;;;;5074146;28;45194;-84
2024/03/29 11:34:12;;;;;;;;;0.00;0.00;;;;;;;;5061623;28;45328;-83
2024/03/29 11:36:39;;;;;;;;;0.00;0.00;;;;;;;;5061326;28;45343;-84
2024/03/29 11:39:04;;;;;;;;;0.00;0.00;;;;;;;;5061523;28;45261;-81
2024/03/29 11:41:32;;;;;;;;;0.00;0.00;;;;;;;;5068609;28;48387;-81
2024/03/29 11:43:57;;;;;;;;;0.00;0.00;;;;;;;;5082149;27;45484;-81
2024/03/29 11:46:23;;;;;;;;;0.00;0.00;;;;;;;;5082931;27;45245;-82
2024/03/29 11:48:51;;;;;;;;;0.00;0.00;;;;;;;;5081117;28;46128;-82
2024/03/29 11:51:19;;;;;;;;;0.00;0.00;;;;;;;;5083065;27;45660;-82
2024/03/29 11:53:44;;;;;;;;;0.00;0.00;;;;;;;;5079991;27;45349;-86
2024/03/29 11:56:11;;;;;;;;;0.00;0.00;;;;;;;;5081157;27;45336;-81
2024/03/29 11:58:37;;;;;;;;;0.00;0.00;;;;;;;;5083355;27;45314;-82
2024/03/29 12:01:02;;;;;;;;;0.00;0.00;;;;;;;;5085067;27;46686;-83
2024/03/29 12:03:31;;;;;;;;;0.00;0.00;;;;;;;;5080935;27;45401;-83
2024/03/29 12:06:03;;;;;;;;;0.00;0.00;;;;;;;;5081901;27;45218;-84
2024/03/29 12:08:30;;;;;;;;;0.00;0.00;;;;;;;;5080356;27;45319;-82
2024/03/29 12:10:55;;;;;;;;;0.00;0.00;;;;;;;;5078717;28;47132;-82
2024/03/29 12:13:20;;;;;;;;;1.00;0.00;;;;;;;;5078939;28;45274;-81
2024/03/29 12:15:45;;;;;;;;;0.00;0.00;;;;;;;;5080150;27;45416;-81
2024/03/29 12:18:12;;;;;;;;;0.25;0.00;;;;;;;;5080040;27;45505;-82
2024/03/29 12:20:38;;;;;;;;;0.00;0.00;;;;;;;;5080312;27;45376;-84
2024/03/29 12:23:06;;;;;;;;;0.00;0.00;;;;;;;;5080362;27;45301;-84
2024/03/29 12:25:32;;;;;;;;;0.00;0.00;;;;;;;;5080747;27;45345;-83
2024/03/29 12:27:58;;;;;;;;;0.00;0.00;;;;;;;;5078334;28;48596;-83
2024/03/29 12:30:24;;;;;;;;;0.00;0.00;;;;;;;;5079921;27;45373;-82
2024/03/29 12:32:59;;;;;;;;;0.00;0.00;;;;;;;;5079782;27;45296;-82
2024/03/29 12:35:27;;;;;;;;;0.00;0.00;;;;;;;;5079396;27;45402;-83
2024/03/29 12:37:53;;;;;;;;;0.00;0.00;;;;;;;;5069141;27;45323;-84
2024/03/29 12:43:36;;;;;;;;;0.00;0.00;;;;;;;;5061005;28;45342;-84
2024/03/29 12:46:01;;;;;;;;;0.00;0.00;;;;;;;;5059790;28;45346;-82
2024/03/29 12:48:27;;;;;;;;;0.00;0.00;;;;;;;;5059662;28;45286;-83
2024/03/29 12:50:53;;;;;;;;;0.00;0.00;;;;;;;;5060832;28;45325;-82
2024/03/29 12:53:18;;;;;;;;;0.00;0.00;;;;;;;;5059712;28;45386;-82
2024/03/29 12:55:45;;;;;;;;;0.00;0.00;;;;;;;;5059250;28;45271;-84
2024/03/29 12:58:11;;;;;;;;;0.00;0.00;;;;;;;;5091489;27;45288;-82
2024/03/29 13:00:37;;;;;;;;;0.00;0.00;;;;;;;;5100526;27;45238;-84
2024/03/29 13:03:02;;;;;;;;;0.00;0.00;;;;;;;;5100582;27;45307;-88
2024/03/29 13:05:33;;;;;;;;;0.00;0.00;;;;;;;;5102823;27;45415;-85
2024/03/29 13:07:59;;;;;;;;;0.00;0.00;;;;;;;;5103666;27;45313;-82
2024/03/29 13:10:24;;;;;;;;;0.25;0.00;;;;;;;;5103311;27;45380;-82
2024/03/29 13:12:50;;;;;;;;;0.75;0.00;;;;;;;;5088812;27;45275;-84
2024/03/29 13:15:19;;;;;;;;;0.00;0.00;;;;;;;;5073497;28;46403;-85
2024/03/29 13:17:45;;;;;;;;;0.00;0.00;;;;;;;;5072518;28;45395;-84
2024/03/29 13:20:11;;;;;;;;;0.00;0.00;;;;;;;;5065399;28;48207;-84
2024/03/29 13:22:36;;;;;;;;;0.00;0.00;;;;;;;;5070871;28;45315;-83
2024/03/29 13:25:02;;;;;;;;;0.00;0.00;;;;;;;;5061751;28;45565;-82
2024/03/29 13:27:27;;;;;;;;;0.00;0.00;;;;;;;;5060254;28;46154;-84
2024/03/29 13:29:52;;;;;;;;;0.00;0.00;;;;;;;;5061829;28;45449;-85
2024/03/29 13:32:18;;;;;;;;;0.00;0.00;;;;;;;;5061601;28;45588;-85
2024/03/29 13:34:43;;;;;;;;;0.00;0.00;;;;;;;;5062421;28;45157;-85
2024/03/29 13:37:08;;;;;;;;;0.00;0.00;;;;;;;;5061003;28;46385;-84
2024/03/29 13:39:33;;;;;;;;;0.00;0.00;;;;;;;;5060771;28;47115;-80
2024/03/29 13:41:58;;;;;;;;;2.33;2.33;;;;;;;;5062463;28;45323;-80
2024/03/29 13:44:24;;;;;;;;;0.00;0.00;;;;;;;;5062328;28;45300;-82
2024/03/29 13:46:49;;;;;;;;;0.00;0.00;;;;;;;;5061684;28;45276;-80
2024/03/29 13:49:14;;;;;;;;;0.25;0.25;;;;;;;;5061589;28;45963;-79
2024/03/29 13:51:40;;;;;;;;;0.00;0.00;;;;;;;;5060339;28;45597;-79
2024/03/29 13:54:05;;;;;;;;;0.00;0.00;;;;;;;;5060818;28;45281;-80
2024/03/29 13:56:30;;;;;;;;;0.75;0.75;;;;;;;;5063541;27;45269;-81
2024/03/29 13:58:55;;;;;;;;;0.00;0.00;;;;;;;;5102412;27;45773;-79
2024/03/29 14:01:20;;;;;;;;;0.00;0.00;;;;;;;;5102319;27;45457;-81
2024/03/29 14:03:46;;;;;;;;;0.00;0.00;;;;;;;;5102505;27;45284;-81
2024/03/29 14:06:11;;;;;;;;;0.00;0.00;;;;;;;;5102352;27;45659;-80
2024/03/29 14:08:36;;;;;;;;;0.00;0.00;;;;;;;;5102212;27;46315;-82
2024/03/29 14:11:01;;;;;;;;;0.25;0.25;;;;;;;;5101099;27;45316;-80
2024/03/29 14:13:27;;;;;;;;;0.00;0.00;;;;;;;;5102551;27;45313;-82
2024/03/29 14:15:52;;;;;;;;;0.00;0.00;;;;;;;;5100930;27;45551;-80
2024/03/29 14:18:17;;;;;;;;;1.00;1.00;;;;;;;;5101942;27;45454;-80
2024/03/29 14:20:42;;;;;;;;;0.00;0.00;;;;;;;;5100839;27;45349;-81
2024/03/29 14:23:10;;;;;;;;;0.00;0.00;;;;;;;;5093243;27;45276;-82
2024/03/29 14:25:38;;;;;;;;;1.50;0.00;;;;;;;;5081085;28;45408;-80
2024/03/29 14:28:09;;;;;;;;;1.00;1.00;;;;;;;;5079786;28;47311;-81
2024/03/29 14:30:34;;;;;;;;;0.00;0.00;;;;;;;;5078572;28;45740;-80
2024/03/29 14:33:06;;;;;;;;;0.00;0.00;;;;;;;;5081683;28;45239;-81
2024/03/29 14:35:33;;;;;;;;;1.00;0.75;;;;;;;;5080013;28;46808;-80
2024/03/29 14:37:59;;;;;;;;;1.00;0.00;;;;;;;;5081467;28;45288;-80
2024/03/29 14:40:26;;;;;;;;;1.00;1.00;;;;;;;;5080034;28;45414;-80
2024/03/29 14:42:51;;;;;;;;;1.00;1.00;;;;;;;;5081315;28;45288;-80
2024/03/29 14:45:16;;;;;;;;;0.75;0.00;;;;;;;;5079722;28;46222;-81
2024/03/29 14:47:42;;;;;;;;;0.75;0.00;;;;;;;;5081249;28;45292;-80